createdAt,value
2022-12-03T00:00:12.138Z,104.10
2022-12-03T00:03:00.761Z,101.05
2022-12-03T00:05:28.689Z,96.05
2022-12-03T00:07:56.473Z,108.15
2022-12-03T00:10:24.114Z,102.38
2022-12-03T00:12:51.364Z,99.72
2022-12-03T00:15:19.682Z,109.40
2022-12-03T00:17:47.145Z,109.43
2022-12-03T00:20:21.896Z,105.32
2022-12-03T00:22:49.894Z,106.88
2022-12-03T00:25:17.939Z,99.65
2022-12-03T00:27:45.736Z,105.80
2022-12-03T00:30:13.942Z,92.55
2022-12-03T00:32:42.319Z,98.63
2022-12-03T00:35:10.354Z,104.00
2022-12-03T00:37:38.071Z,94.55
2022-12-03T00:40:07.334Z,101.03
2022-12-03T00:42:34.790Z,98.20
2022-12-03T00:45:02.468Z,88.47
2022-12-03T00:47:33.509Z,81.53
2022-12-03T00:50:02.068Z,99.88
2022-12-03T00:52:29.530Z,73.70
2022-12-03T00:54:57.169Z,85.68
2022-12-03T00:57:24.684Z,96.55
2022-12-03T00:59:52.583Z,85.03
2022-12-03T01:02:20.083Z,100.13
2022-12-03T01:04:48.410Z,83.55
2022-12-03T01:07:15.799Z,83.57
2022-12-03T01:09:43.484Z,97.95
2022-12-03T01:12:12.134Z,81.07
2022-12-03T01:14:39.914Z,84.05
2022-12-03T01:17:07.650Z,62.40
2022-12-03T01:19:36.091Z,97.63
2022-12-03T01:22:03.466Z,87.03
2022-12-03T01:24:31.361Z,72.47
2022-12-03T01:26:58.828Z,77.45
2022-12-03T01:29:26.685Z,79.15
2022-12-03T01:32:12.484Z,82.82
2022-12-03T01:34:40.112Z,108.35
2022-12-03T01:37:07.454Z,100.90
2022-12-03T01:39:35.373Z,87.10
2022-12-03T01:42:03.278Z,81.22
2022-12-03T01:44:33.717Z,82.68
2022-12-03T01:47:07.350Z,81.07
2022-12-03T01:49:46.566Z,66.47
2022-12-03T01:52:17.090Z,77.95
2022-12-03T01:55:00.528Z,73.00
2022-12-03T01:57:40.343Z,78.35
2022-12-03T02:00:13.807Z,77.38
2022-12-03T02:02:41.892Z,75.43
2022-12-03T02:05:20.124Z,75.85
2022-12-03T02:07:48.384Z,81.80
2022-12-03T02:10:18.300Z,68.00
2022-12-03T02:13:08.822Z,69.47
2022-12-03T02:15:38.417Z,68.82
2022-12-03T02:18:08.358Z,74.68
2022-12-03T02:20:44.829Z,68.97
2022-12-03T02:23:28.232Z,67.45
2022-12-03T02:25:55.994Z,65.97
2022-12-03T02:28:23.631Z,62.38
2022-12-03T02:30:51.548Z,70.95
2022-12-03T02:33:19.205Z,63.33
2022-12-03T02:35:47.421Z,57.45
2022-12-03T02:38:21.362Z,64.60
2022-12-03T02:40:52.823Z,68.43
2022-12-03T02:43:21.607Z,56.90
2022-12-03T02:45:57.217Z,63.90
2022-12-03T02:48:29.013Z,61.85
2022-12-03T02:51:09.231Z,58.42
2022-12-03T02:53:42.798Z,68.88
2022-12-03T02:56:13.864Z,71.63
2022-12-03T02:58:42.458Z,66.95
2022-12-03T03:01:11.283Z,62.47
2022-12-03T03:03:39.630Z,68.82
2022-12-03T03:06:08.529Z,58.03
2022-12-03T03:08:38.228Z,64.50
2022-12-03T03:11:06.429Z,68.00
2022-12-03T03:13:35.861Z,68.63
2022-12-03T03:16:05.854Z,57.85
2022-12-03T03:18:34.519Z,61.30
2022-12-03T03:21:04.006Z,59.50
2022-12-03T03:23:31.647Z,61.10
2022-12-03T03:26:06.249Z,52.47
2022-12-03T03:28:36.294Z,55.47
2022-12-03T03:31:07.623Z,54.30
2022-12-03T03:33:35.549Z,58.85
2022-12-03T03:36:03.518Z,58.08
2022-12-03T03:38:32.058Z,54.65
2022-12-03T03:41:01.660Z,58.78
2022-12-03T03:43:30.192Z,51.83
2022-12-03T03:45:58.164Z,46.85
2022-12-03T03:48:25.934Z,61.08
2022-12-03T03:50:54.463Z,54.40
2022-12-03T03:53:22.507Z,55.63
2022-12-03T03:55:51.728Z,67.15
2022-12-03T03:58:19.569Z,58.88
2022-12-03T04:00:48.147Z,55.22
2022-12-03T04:03:15.890Z,63.15
2022-12-03T04:05:43.737Z,39.80
2022-12-03T04:08:11.586Z,50.75
2022-12-03T04:10:58.211Z,56.53
2022-12-03T04:13:26.467Z,51.78
2022-12-03T04:15:55.279Z,46.45
2022-12-03T04:18:41.749Z,60.53
2022-12-03T04:21:33.927Z,52.45
2022-12-03T04:24:01.750Z,53.33
2022-12-03T04:29:30.519Z,43.80
2022-12-03T04:32:17.109Z,52.38
2022-12-03T04:35:03.467Z,50.08
2022-12-03T04:37:31.678Z,55.72
2022-12-03T04:39:59.728Z,57.90
2022-12-03T04:42:27.684Z,45.03
2022-12-03T04:44:55.849Z,58.53
2022-12-03T04:47:24.107Z,53.45
2022-12-03T04:49:52.650Z,53.30
2022-12-03T04:52:21.272Z,47.50
2022-12-03T04:54:49.753Z,58.15
2022-12-03T04:57:17.984Z,51.55
2022-12-03T04:59:45.669Z,51.70
2022-12-03T05:02:13.996Z,49.97
2022-12-03T05:04:42.888Z,52.15
2022-12-03T05:07:11.469Z,57.53
2022-12-03T05:09:39.318Z,37.13
2022-12-03T05:12:07.572Z,56.95
2022-12-03T05:14:36.158Z,49.13
2022-12-03T05:17:04.190Z,52.65
2022-12-03T05:19:50.489Z,49.95
2022-12-03T05:22:19.034Z,37.78
2022-12-03T05:24:46.772Z,51.90
2022-12-03T05:27:18.794Z,55.28
2022-12-03T05:29:49.958Z,42.65
2022-12-03T05:32:44.710Z,43.60
2022-12-03T05:35:13.232Z,45.78
2022-12-03T05:37:42.200Z,49.60
2022-12-03T05:40:10.777Z,34.10
2022-12-03T05:42:57.812Z,60.80
2022-12-03T05:45:29.818Z,42.00
2022-12-03T05:47:59.410Z,54.83
2022-12-03T05:50:30.229Z,47.75
2022-12-03T05:52:58.638Z,61.67
2022-12-03T05:55:27.545Z,44.65
2022-12-03T05:57:56.060Z,49.13
2022-12-03T06:00:35.418Z,54.55
2022-12-03T06:03:07.271Z,54.97
2022-12-03T06:05:35.135Z,62.10
2022-12-03T06:08:03.554Z,50.28
2022-12-03T06:10:31.313Z,28.33
2022-12-03T06:12:59.237Z,60.15
2022-12-03T06:15:27.144Z,54.28
2022-12-03T06:17:55.115Z,40.97
2022-12-03T06:20:22.927Z,51.22
2022-12-03T06:22:51.431Z,37.08
2022-12-03T06:25:19.188Z,37.78
2022-12-03T06:27:47.927Z,47.90
2022-12-03T06:30:15.729Z,54.72
2022-12-03T06:32:43.619Z,56.15
2022-12-03T06:35:12.053Z,54.45
2022-12-03T06:37:40.194Z,61.70
2022-12-03T06:40:08.605Z,60.55
2022-12-03T06:42:36.838Z,49.10
2022-12-03T06:45:04.634Z,60.78
2022-12-03T06:47:33.119Z,59.03
2022-12-03T06:50:00.990Z,56.53
2022-12-03T06:52:29.243Z,61.58
2022-12-03T06:54:57.200Z,63.63
2022-12-03T06:57:25.283Z,61.22
2022-12-03T06:59:53.278Z,66.50
2022-12-03T07:02:21.510Z,58.13
2022-12-03T07:04:49.422Z,56.95
2022-12-03T07:07:17.783Z,64.80
2022-12-03T07:09:45.456Z,60.88
2022-12-03T07:12:13.491Z,53.92
2022-12-03T07:14:41.442Z,60.00
2022-12-03T07:17:09.293Z,57.08
2022-12-03T07:19:36.953Z,62.42
2022-12-03T07:22:04.962Z,56.63
2022-12-03T07:24:33.222Z,48.72
2022-12-03T07:27:01.140Z,60.10
2022-12-03T07:29:28.827Z,53.55
2022-12-03T07:31:57.377Z,64.43
2022-12-03T07:34:25.155Z,66.43
2022-12-03T07:36:53.803Z,58.30
2022-12-03T07:39:21.590Z,58.97
2022-12-03T07:41:50.087Z,54.95
2022-12-03T07:44:17.812Z,57.90
2022-12-03T07:46:45.684Z,59.47
2022-12-03T07:49:13.873Z,41.95
2022-12-03T07:51:43.069Z,62.15
2022-12-03T07:54:10.724Z,62.47
2022-12-03T07:56:38.506Z,56.25
2022-12-03T07:59:06.182Z,64.32
2022-12-03T08:01:34.100Z,64.63
2022-12-03T08:04:01.932Z,66.88
2022-12-03T08:06:29.570Z,66.05
2022-12-03T08:08:57.291Z,63.92
2022-12-03T08:11:25.031Z,62.53
2022-12-03T08:13:53.188Z,55.22
2022-12-03T08:16:22.461Z,48.55
2022-12-03T08:18:51.601Z,54.35
2022-12-03T08:21:21.611Z,55.22
2022-12-03T08:23:49.890Z,65.78
2022-12-03T08:26:22.622Z,67.85
2022-12-03T08:28:51.311Z,58.95
2022-12-03T08:31:21.048Z,58.85
2022-12-03T08:33:50.755Z,66.53
2022-12-03T08:36:37.056Z,64.90
2022-12-03T08:39:35.182Z,59.42
2022-12-03T08:42:32.373Z,64.70
2022-12-03T08:45:41.446Z,71.72
2022-12-03T08:48:21.974Z,56.65
2022-12-03T08:50:49.931Z,63.08
2022-12-03T08:53:28.195Z,54.20
2022-12-03T08:56:01.722Z,60.67
2022-12-03T08:58:41.537Z,74.00
2022-12-03T09:01:12.195Z,65.13
2022-12-03T09:03:49.628Z,61.08
2022-12-03T09:06:17.493Z,69.88
2022-12-03T09:08:45.780Z,63.30
2022-12-03T09:11:13.636Z,72.18
2022-12-03T09:13:41.586Z,59.47
2022-12-03T09:16:09.650Z,65.43
2022-12-03T09:18:37.833Z,68.78
2022-12-03T09:21:06.056Z,65.05
2022-12-03T09:23:34.131Z,71.35
2022-12-03T09:26:01.841Z,58.97
2022-12-03T09:28:30.119Z,65.70
2022-12-03T09:30:59.864Z,61.33
2022-12-03T09:33:28.477Z,67.47
2022-12-03T09:35:56.447Z,76.88
2022-12-03T09:38:26.186Z,67.30
2022-12-03T09:40:54.607Z,66.72
2022-12-03T09:43:24.623Z,70.70
2022-12-03T09:45:57.970Z,69.47
2022-12-03T09:48:26.932Z,63.28
2022-12-03T09:50:55.444Z,66.40
2022-12-03T09:53:26.102Z,74.25
2022-12-03T09:55:54.753Z,71.85
2022-12-03T09:58:23.613Z,71.00
2022-12-03T10:00:52.720Z,66.88
2022-12-03T10:03:29.452Z,71.78
2022-12-03T10:05:58.456Z,67.28
2022-12-03T10:08:32.443Z,64.85
2022-12-03T10:11:00.408Z,66.70
2022-12-03T10:13:30.510Z,79.60
2022-12-03T10:16:00.107Z,69.05
2022-12-03T10:18:32.778Z,66.90
2022-12-03T10:21:04.286Z,69.97
2022-12-03T10:23:32.713Z,71.68
2022-12-03T10:26:04.226Z,82.47
2022-12-03T10:28:34.515Z,69.85
2022-12-03T10:31:04.004Z,73.03
2022-12-03T10:33:35.389Z,68.90
2022-12-03T10:36:25.940Z,73.22
2022-12-03T10:39:14.948Z,64.88
2022-12-03T10:41:44.053Z,62.20
2022-12-03T10:44:17.320Z,71.63
2022-12-03T10:46:46.404Z,61.63
2022-12-03T10:49:17.734Z,59.88
2022-12-03T10:51:48.730Z,68.85
2022-12-03T10:54:22.376Z,68.70
2022-12-03T10:56:52.111Z,67.78
2022-12-03T10:59:22.920Z,67.25
2022-12-03T11:01:51.472Z,72.43
2022-12-03T11:04:35.848Z,68.10
2022-12-03T11:07:06.443Z,67.22
2022-12-03T11:09:35.113Z,72.85
2022-12-03T11:12:07.381Z,57.03
2022-12-03T11:14:57.961Z,78.28
2022-12-03T11:17:44.597Z,75.93
2022-12-03T11:20:33.439Z,73.80
2022-12-03T11:23:01.537Z,80.72
2022-12-03T11:25:29.724Z,77.40
2022-12-03T11:28:15.647Z,71.35
2022-12-03T11:30:53.931Z,79.78
2022-12-03T11:33:27.482Z,71.97
2022-12-03T11:36:05.051Z,67.70
2022-12-03T11:38:42.664Z,66.80
2022-12-03T11:41:19.420Z,62.63
2022-12-03T11:43:54.199Z,70.82
2022-12-03T11:46:44.300Z,73.53
2022-12-03T11:49:39.303Z,73.85
2022-12-03T11:52:23.718Z,70.65
2022-12-03T11:54:58.425Z,65.70
2022-12-03T11:57:35.844Z,73.07
2022-12-03T12:00:18.159Z,75.22
2022-12-03T12:02:47.300Z,70.90
2022-12-03T12:05:27.983Z,73.82
2022-12-03T12:07:58.170Z,70.75
2022-12-03T12:10:48.875Z,78.28
2022-12-03T12:13:32.845Z,60.42
2022-12-03T12:16:06.519Z,67.97
2022-12-03T12:18:44.547Z,64.80
2022-12-03T12:21:44.051Z,64.53
2022-12-03T12:24:51.717Z,68.38
2022-12-03T12:27:22.576Z,67.18
2022-12-03T12:29:56.673Z,70.82
2022-12-03T12:32:30.391Z,69.60
2022-12-03T12:35:14.899Z,74.60
2022-12-03T12:38:01.458Z,70.70
2022-12-03T12:40:32.666Z,75.05
2022-12-03T12:43:12.423Z,77.97
2022-12-03T12:45:43.944Z,70.95
2022-12-03T12:48:47.180Z,73.57
2022-12-03T12:51:19.848Z,80.47
2022-12-03T12:53:48.284Z,54.42
2022-12-03T12:56:32.922Z,73.97
2022-12-03T12:59:20.217Z,69.70
2022-12-03T13:01:49.935Z,73.50
2022-12-03T13:04:18.793Z,71.75
2022-12-03T13:06:51.128Z,79.35
2022-12-03T13:09:25.833Z,72.75
2022-12-03T13:11:59.660Z,69.38
2022-12-03T13:14:37.024Z,73.70
2022-12-03T13:17:18.446Z,72.63
2022-12-03T13:19:49.840Z,72.47
2022-12-03T13:22:23.625Z,75.32
2022-12-03T13:24:53.025Z,63.22
2022-12-03T13:27:23.874Z,77.30
2022-12-03T13:29:55.454Z,75.80
2022-12-03T13:32:37.170Z,73.88
2022-12-03T13:35:35.762Z,78.35
2022-12-03T13:38:13.021Z,76.30
2022-12-03T13:40:41.601Z,73.93
2022-12-03T13:43:13.222Z,80.32
2022-12-03T13:45:44.298Z,77.85
2022-12-03T13:48:17.638Z,76.32
2022-12-03T13:53:33.758Z,80.43
2022-12-03T13:56:32.973Z,77.70
2022-12-03T13:59:02.249Z,76.90
2022-12-03T14:01:30.715Z,80.10
2022-12-03T14:03:59.274Z,82.25
2022-12-03T14:06:27.350Z,79.90
2022-12-03T14:08:55.600Z,78.90
2022-12-03T14:11:46.385Z,87.05
2022-12-03T14:14:14.329Z,86.68
2022-12-03T14:16:42.105Z,77.75
2022-12-03T14:19:10.553Z,81.78
2022-12-03T14:21:38.169Z,87.10
2022-12-03T14:24:06.908Z,83.05
2022-12-03T14:26:34.690Z,82.82
2022-12-03T14:29:08.408Z,77.93
2022-12-03T14:31:37.284Z,84.15
2022-12-03T14:34:05.628Z,90.10
2022-12-03T14:36:33.453Z,96.13
2022-12-03T14:39:02.111Z,92.25
2022-12-03T14:41:48.773Z,87.88
2022-12-03T14:44:17.125Z,79.78
2022-12-03T14:46:45.130Z,85.55
2022-12-03T14:49:13.615Z,93.13
2022-12-03T14:51:41.473Z,91.82
2022-12-03T14:54:11.119Z,90.93
2022-12-03T14:56:38.812Z,95.32
2022-12-03T14:59:06.921Z,121.38
2022-12-03T15:01:34.859Z,93.90
2022-12-03T15:04:03.084Z,90.93
2022-12-03T15:06:30.899Z,85.25
2022-12-03T15:08:59.259Z,101.55
2022-12-03T15:11:27.189Z,137.02
2022-12-03T15:13:55.271Z,93.30
2022-12-03T15:16:23.756Z,94.75
2022-12-03T15:18:52.056Z,90.63
2022-12-03T15:21:19.943Z,90.68
2022-12-03T15:23:48.564Z,89.35
2022-12-03T15:26:16.300Z,103.88
2022-12-03T15:28:48.205Z,112.57
2022-12-03T15:31:16.326Z,102.55
2022-12-03T15:33:45.008Z,92.82
2022-12-03T15:36:12.833Z,90.63
2022-12-03T15:38:41.549Z,103.45
2022-12-03T15:41:21.903Z,99.32
2022-12-03T15:43:52.550Z,103.22
2022-12-03T15:46:20.574Z,114.07
2022-12-03T15:48:49.261Z,116.07
2022-12-03T15:51:17.232Z,101.95
2022-12-03T15:53:45.655Z,100.72
2022-12-03T15:56:14.329Z,103.28
2022-12-03T15:58:42.822Z,118.65
2022-12-03T16:01:11.588Z,104.85
2022-12-03T16:03:40.260Z,101.57
2022-12-03T16:06:09.271Z,97.55
2022-12-03T16:08:37.690Z,105.85
2022-12-03T16:11:06.418Z,109.45
2022-12-03T16:13:35.118Z,110.75
2022-12-03T16:16:03.119Z,114.20
2022-12-03T16:18:32.566Z,110.65
2022-12-03T16:21:00.330Z,113.10
2022-12-03T16:23:28.871Z,114.97
2022-12-03T16:25:56.747Z,115.18
2022-12-03T16:28:25.361Z,119.03
2022-12-03T16:30:53.957Z,125.70
2022-12-03T16:33:27.286Z,121.85
2022-12-03T16:35:55.812Z,111.60
2022-12-03T16:38:25.390Z,126.38
2022-12-03T16:40:53.742Z,121.88
2022-12-03T16:43:22.332Z,132.23
2022-12-03T16:45:57.134Z,115.70
2022-12-03T16:48:25.323Z,131.88
2022-12-03T16:50:54.050Z,130.40
2022-12-03T16:53:22.401Z,123.03
2022-12-03T16:55:50.223Z,127.50
2022-12-03T16:58:21.658Z,120.10
2022-12-03T17:00:50.274Z,127.15
2022-12-03T17:03:19.055Z,120.45
2022-12-03T17:05:47.593Z,125.82
2022-12-03T17:08:16.557Z,121.35
2022-12-03T17:10:45.293Z,128.07
2022-12-03T17:13:13.696Z,136.80
2022-12-03T17:15:42.034Z,126.95
2022-12-03T17:18:10.301Z,142.40
2022-12-03T17:20:38.977Z,129.15
2022-12-03T17:23:07.721Z,131.77
2022-12-03T17:25:35.860Z,138.13
2022-12-03T17:28:04.228Z,132.45
2022-12-03T17:30:32.240Z,134.43
2022-12-03T17:33:00.614Z,144.80
2022-12-03T17:35:29.029Z,134.88
2022-12-03T17:37:57.324Z,125.35
2022-12-03T17:40:25.527Z,151.57
2022-12-03T17:42:54.203Z,137.80
2022-12-03T17:45:22.092Z,145.30
2022-12-03T17:47:50.433Z,138.13
2022-12-03T17:50:18.505Z,144.70
2022-12-03T17:52:47.010Z,139.07
2022-12-03T17:55:23.991Z,134.95
2022-12-03T17:57:56.676Z,143.93
2022-12-03T18:00:24.616Z,148.88
2022-12-03T18:02:52.851Z,152.70
2022-12-03T18:05:21.273Z,148.43
2022-12-03T18:07:53.059Z,154.10
2022-12-03T18:10:21.564Z,131.82
2022-12-03T18:12:50.146Z,127.38
2022-12-03T18:15:17.955Z,149.90
2022-12-03T18:17:45.970Z,143.73
2022-12-03T18:20:13.949Z,145.80
2022-12-03T18:22:42.320Z,139.10
2022-12-03T18:25:10.723Z,161.52
2022-12-03T18:27:38.765Z,143.75
2022-12-03T18:30:07.534Z,157.20
2022-12-03T18:32:36.041Z,152.73
2022-12-03T18:35:04.689Z,136.90
2022-12-03T18:37:33.693Z,160.85
2022-12-03T18:40:02.146Z,115.22
2022-12-03T18:42:30.894Z,149.57
2022-12-03T18:44:59.604Z,133.68
2022-12-03T18:47:29.185Z,158.32
2022-12-03T18:49:57.799Z,159.40
2022-12-03T18:52:26.677Z,164.00
2022-12-03T18:54:55.583Z,174.80
2022-12-03T18:57:24.230Z,185.90
2022-12-03T18:59:52.750Z,156.23
2022-12-03T19:05:11.324Z,169.98
2022-12-03T19:07:39.583Z,147.57
2022-12-03T19:10:08.303Z,122.47
2022-12-03T19:12:36.919Z,166.82
2022-12-03T19:15:06.022Z,176.15
2022-12-03T19:17:34.693Z,164.55
2022-12-03T19:20:02.594Z,167.10
2022-12-03T19:22:31.021Z,171.52
2022-12-03T19:24:58.940Z,164.82
2022-12-03T19:27:29.853Z,167.65
2022-12-03T19:29:58.520Z,152.65
2022-12-03T19:32:26.897Z,146.85
2022-12-03T19:34:54.698Z,152.95
2022-12-03T19:37:23.457Z,154.80
2022-12-03T19:39:54.293Z,156.57
2022-12-03T19:42:23.000Z,155.75
2022-12-03T19:44:51.480Z,156.93
2022-12-03T19:47:20.174Z,143.70
2022-12-03T19:49:48.737Z,162.27
2022-12-03T19:52:17.140Z,158.15
2022-12-03T19:54:45.211Z,154.32
2022-12-03T19:57:14.920Z,143.63
2022-12-03T19:59:46.179Z,163.40
2022-12-03T20:02:15.365Z,151.30
2022-12-03T20:04:45.386Z,146.95
2022-12-03T20:07:14.018Z,165.52
2022-12-03T20:09:42.421Z,151.20
2022-12-03T20:12:10.668Z,149.15
2022-12-03T20:14:40.408Z,150.27
2022-12-03T20:17:10.379Z,153.23
2022-12-03T20:19:38.383Z,129.85
2022-12-03T20:22:07.006Z,123.63
2022-12-03T20:24:34.902Z,145.13
2022-12-03T20:27:03.443Z,129.52
2022-12-03T20:29:31.273Z,154.60
2022-12-03T20:32:00.090Z,153.23
2022-12-03T20:34:28.312Z,142.73
2022-12-03T20:36:56.595Z,130.23
2022-12-03T20:39:24.562Z,125.13
2022-12-03T20:41:52.909Z,140.00
2022-12-03T20:44:21.043Z,139.88
2022-12-03T20:46:50.127Z,140.93
2022-12-03T20:49:18.148Z,126.15
2022-12-03T20:51:47.553Z,132.30
2022-12-03T20:54:15.287Z,132.77
2022-12-03T20:56:44.106Z,136.75
2022-12-03T20:59:13.931Z,120.97
2022-12-03T21:01:43.561Z,142.52
2022-12-03T21:04:14.017Z,123.13
2022-12-03T21:06:42.790Z,100.95
2022-12-03T21:09:27.515Z,136.23
2022-12-03T21:12:28.616Z,123.53
2022-12-03T21:15:16.099Z,121.60
2022-12-03T21:17:44.454Z,144.98
2022-12-03T21:20:16.587Z,109.90
2022-12-03T21:22:50.499Z,133.32
2022-12-03T21:25:18.446Z,121.53
2022-12-03T21:27:47.161Z,118.63
2022-12-03T21:30:15.660Z,100.15
2022-12-03T21:32:44.258Z,132.50
2022-12-03T21:35:13.009Z,116.47
2022-12-03T21:37:41.718Z,110.60
2022-12-03T21:40:10.463Z,132.63
2022-12-03T21:42:38.980Z,121.03
2022-12-03T21:45:07.642Z,152.32
2022-12-03T21:47:37.480Z,116.90
2022-12-03T21:50:08.151Z,137.07
2022-12-03T21:52:37.307Z,133.32
2022-12-03T21:55:06.584Z,139.95
2022-12-03T21:57:38.330Z,144.68
2022-12-03T22:00:09.179Z,157.23
2022-12-03T22:02:40.757Z,146.45
2022-12-03T22:05:10.718Z,154.93
2022-12-03T22:07:40.102Z,150.77
2022-12-03T22:10:10.577Z,151.10
2022-12-03T22:12:41.258Z,156.40
2022-12-03T22:15:16.756Z,154.48
2022-12-03T22:17:48.101Z,161.02
2022-12-03T22:20:16.140Z,117.93
2022-12-03T22:22:44.896Z,163.82
2022-12-03T22:25:12.811Z,139.43
2022-12-03T22:27:41.208Z,113.57
2022-12-03T22:30:09.316Z,135.30
2022-12-03T22:32:37.859Z,141.73
2022-12-03T22:35:06.421Z,150.25
2022-12-03T22:37:35.126Z,144.73
2022-12-03T22:40:03.457Z,149.23
2022-12-03T22:42:32.519Z,122.28
2022-12-03T22:45:00.737Z,145.60
2022-12-03T22:47:29.446Z,146.00
2022-12-03T22:49:57.964Z,135.77
2022-12-03T22:52:26.472Z,117.55
2022-12-03T22:54:55.171Z,141.05
2022-12-03T22:57:24.569Z,157.40
2022-12-03T22:59:52.720Z,138.88
2022-12-03T23:02:21.392Z,120.95
2022-12-03T23:04:49.103Z,128.82
2022-12-03T23:07:17.349Z,107.82
2022-12-03T23:09:44.700Z,142.02
2022-12-03T23:12:14.844Z,131.98
2022-12-03T23:14:42.193Z,148.52
2022-12-03T23:17:10.022Z,101.47
2022-12-03T23:19:37.474Z,149.95
2022-12-03T23:22:05.122Z,147.88
2022-12-03T23:24:33.238Z,139.82
2022-12-03T23:27:00.947Z,138.65
2022-12-03T23:29:28.407Z,151.38
2022-12-03T23:31:57.243Z,131.32
2022-12-03T23:34:24.834Z,106.90
2022-12-03T23:36:53.287Z,75.05
2022-12-03T23:39:21.297Z,94.05
2022-12-03T23:41:52.475Z,121.40
2022-12-03T23:44:20.032Z,118.93
2022-12-03T23:46:48.004Z,137.15
2022-12-03T23:49:15.442Z,117.40
2022-12-03T23:51:43.140Z,122.95
2022-12-03T23:54:12.338Z,117.07
2022-12-03T23:56:41.159Z,127.43
2022-12-03T23:59:08.566Z,114.10
